Aeroporto :
LOGIN :

Iscrizione | Disclaimer

   EN    FR    IT 

 










Sommario :    VFR   VFR Marginale   IFR   IFR Intensivo   IFR Molto Intensivo
Visibilità : 
Base nubi : 
>= 8 km
>= 3000ft
5 / 8 km
1000 / 3000 ft
1500m / 5 km
500 / 1000 ft
800 / 1500m
200 / 500 ft
< 800m
< 200 ft
Simboli :   Temporali  Nebbia  Neve Forte  Precipitazioni Forti  Vento > 20 kt
SIGMETs :   Varie  Temporali  Ghiacco  Turbolenza  Onda orograficha  Ceneri Vulcaniche







- Altitudine del aeroporto : 1906 ft
- Codice IATA : INN


LOWI - Innsbruck

ULTIMO METAR :
  • 192020Z VRB05KT CAVOK 12/M02 Q1027 NOSIG

METARs OBSOLETI :
  • 191950Z 06005KT 020V160 CAVOK 14/00 Q1027 NOSIG
  • 191920Z 09007KT CAVOK 14/01 Q1027 NOSIG
  • 191850Z 17005KT CAVOK 15/02 Q1026 NOSIG
  • 191820Z 16004KT CAVOK 16/02 Q1026 NOSIG
  • 191750Z VRB03KT 9999 FEW070 16/03 Q1026 NOSIG

TAF TAF LOWI
Valido dal 19 a 18 ore il 20 a 18 ore UTC


191715Z 1918/2018 VRB02KT CAVOK TX23/2014Z TN05/2004Z
BECMG 1918/1920 27006KT
BECMG 2010/2012 07007KT
Nessun NOTAM noto per questo aeroporto.



MetMap, La meteo Aeronautica in un colpo d'occhio ! - Copyright ORBIFLY Dicembre 2007 - Disclaimer

ORBIFLY MET'MAP TEAM :

Programmazione e sviluppo : Alexandra Zaïnal
Concezione e sviluppo : Baudouin d'Aumeries
Co-Programmazione e sviluppo : Marc-Olivier Méhu
Supporto tecnico e logistico : Manuel Goepfert
Aiuto per la traduzione : Arnaldo La Scala

Contatto : metmap@orbifly.com




FONTI E CREDITI :

   NOAA